Terminal Aerodrome Forecast
Issued by NWS Blacksburg, VA

Home | Current Version | Previous Version | Text Only | Print | Product List | Glossary On
Versions: 1 2 3 4 5 6 7 8 9 10 11 12 13 14 15 16 17 18 19 20 21 22 23 24 25 26 27 28
000
FTUS41 KRNK 101130
TAFDAN
TAF
KDAN 101130Z 1012/1112 13008KT 6SM BR SCT050 BKN100
     FM101400 02004KT P6SM VCSH BKN035 BKN070
     FM101800 14005KT P6SM VCTS BKN050CB
     FM110000 VRB03KT 5SM -SHRA BR VCTS SCT015 OVC035CB
     FM110700 02003KT 4SM BR BKN005
      AMD NOT SKED=

USA.gov is the U.S. government's official web portal to all federal, state and local government web resources and services.